Latest Weather Observations for Banana Bank

IDQ60801

Issued at 2:02 pm EST Thursday 29 January 2015 (issued every 30 minutes, with the page automatically refreshed every 10 minutes)

About weather observations | Map of weather stations | Latest weather observations for QLD | Other Formats
Station Details ID: 040925 Name: BANANA BANK NORTH BEACON Lat: -27.53 Lon: 153.33 Height: 7.0 m
Data from the previous 72 hours. | See also: Recent months for locations in Queensland
Date/Time
EST
Temp
°C
App
Temp
°C
Dew
Point
Rel
Hum
%
Delta-T
°C
Wind Press
QNH
hPa
Press
MSL
hPa
Rain
since 9 am
mm
Dir
 
Spd
km/h
Gust
km/h
Spd
kts
Gust
kts
29/02:00pm - - - - - SE 26 33 14 18 - - -
29/01:30pm - - - - - SE 28 32 15 17 - - -
29/01:00pm - - - - - SE 28 33 15 18 - - -
29/12:30pm - - - - - SE 28 33 15 18 - - -
29/12:00pm - - - - - SE 30 35 16 19 - - -
29/11:30am - - - - - SSE 28 32 15 17 - - -
29/11:00am - - - - - SSE 30 41 16 22 - - -
29/10:30am - - - - - SSE 30 35 16 19 - - -
29/10:00am - - - - - SSE 30 35 16 19 - - -
29/09:30am - - - - - SSE 32 37 17 20 - - -
29/09:00am - - - - - SSE 28 37 15 20 - - -
29/08:30am - - - - - S 26 33 14 18 - - -
29/08:00am - - - - - S 28 35 15 19 - - -
29/07:30am - - - - - S 19 24 10 13 - - -
29/07:00am - - - - - SSW 17 22 9 12 - - -
29/06:30am - - - - - SSW 17 24 9 13 - - -
29/06:00am - - - - - SSW 13 17 7 9 - - -
29/05:30am - - - - - SSW 15 19 8 10 - - -
29/05:00am - - - - - SSW 17 20 9 11 - - -
29/04:30am - - - - - SW 13 17 7 9 - - -
29/04:00am - - - - - SW 15 19 8 10 - - -
29/03:30am - - - - - SW 17 22 9 12 - - -
29/03:00am - - - - - SW 17 20 9 11 - - -
29/02:30am - - - - - SSW 15 20 8 11 - - -
29/02:00am - - - - - SW 15 19 8 10 - - -
29/01:30am - - - - - SW 15 20 8 11 - - -
29/01:00am - - - - - S 22 32 12 17 - - -
29/12:30am - - - - - S 19 28 10 15 - - -
29/12:00am - - - - - S 20 24 11 13 - - -
 
Date/Time
EST
Temp
°C
App
Temp
°C
Dew
Point
Rel
Hum
%
Delta-T
°C
Wind Press
QNH
hPa
Press
MSL
hPa
Rain
since 9 am
mm
Dir
 
Spd
km/h
Gust
km/h
Spd
kts
Gust
kts
28/11:30pm - - - - - S 22 26 12 14 - - -
28/11:00pm - - - - - S 22 30 12 16 - - -
28/10:30pm - - - - - S 24 32 13 17 - - -
28/10:00pm - - - - - S 30 37 16 20 - - -
28/09:30pm - - - - - S 30 35 16 19 - - -
28/09:00pm - - - - - S 32 39 17 21 - - -
28/08:30pm - - - - - S 28 35 15 19 - - -
28/08:00pm - - - - - S 30 35 16 19 - - -
28/07:30pm - - - - - S 28 35 15 19 - - -
28/07:00pm - - - - - S 32 43 17 23 - - -
28/06:30pm - - - - - S 32 37 17 20 - - -
28/06:00pm - - - - - S 35 43 19 23 - - -
28/05:30pm - - - - - SSE 37 46 20 25 - - -
28/05:00pm - - - - - SSE 28 37 15 20 - - -
28/04:30pm - - - - - SSE 37 48 20 26 - - -
28/04:00pm - - - - - SSE 30 39 16 21 - - -
28/03:30pm - - - - - S 32 39 17 21 - - -
28/03:00pm - - - - - SSE 41 50 22 27 - - -
28/02:30pm - - - - - SSE 39 50 21 27 - - -
28/02:00pm - - - - - SSE 39 46 21 25 - - -
28/01:30pm - - - - - SSE 35 43 19 23 - - -
28/01:00pm - - - - - SSE 33 41 18 22 - - -
28/12:30pm - - - - - SSE 26 32 14 17 - - -
28/12:00pm - - - - - S 26 37 14 20 - - -
28/11:30am - - - - - S 32 41 17 22 - - -
28/11:00am - - - - - S 30 33 16 18 - - -
28/10:30am - - - - - S 33 43 18 23 - - -
28/10:00am - - - - - S 32 39 17 21 - - -
28/09:30am - - - - - SSW 26 35 14 19 - - -
28/09:00am - - - - - S 30 37 16 20 - - -
28/08:30am - - - - - S 30 35 16 19 - - -
28/08:00am - - - - - SSE 26 32 14 17 - - -
28/07:30am - - - - - S 22 30 12 16 - - -
28/07:00am - - - - - SSW 19 24 10 13 - - -
28/06:30am - - - - - S 22 28 12 15 - - -
28/06:00am - - - - - S 20 26 11 14 - - -
28/05:30am - - - - - S 20 28 11 15 - - -
28/05:00am - - - - - S 26 33 14 18 - - -
28/04:30am - - - - - S 28 37 15 20 - - -
28/04:00am - - - - - S 30 37 16 20 - - -
28/03:30am - - - - - S 30 35 16 19 - - -
28/03:00am - - - - - SSE 32 39 17 21 - - -
28/02:30am - - - - - S 30 37 16 20 - - -
28/02:00am - - - - - S 35 43 19 23 - - -
28/01:30am - - - - - SSE 35 41 19 22 - - -
28/01:00am - - - - - S 33 43 18 23 - - -
28/12:30am - - - - - SSE 35 41 19 22 - - -
28/12:00am - - - - - SSE 32 41 17 22 - - -
 
Date/Time
EST
Temp
°C
App
Temp
°C
Dew
Point
Rel
Hum
%
Delta-T
°C
Wind Press
QNH
hPa
Press
MSL
hPa
Rain
since 9 am
mm
Dir
 
Spd
km/h
Gust
km/h
Spd
kts
Gust
kts
27/11:30pm - - - - - SSE 28 37 15 20 - - -
27/11:00pm - - - - - SE 28 35 15 19 - - -
27/10:30pm - - - - - SE 26 30 14 16 - - -
27/10:00pm - - - - - SE 26 30 14 16 - - -
27/09:30pm - - - - - SE 26 33 14 18 - - -
27/09:00pm - - - - - SE 30 35 16 19 - - -
27/08:30pm - - - - - SE 30 35 16 19 - - -
27/08:00pm - - - - - SE 28 33 15 18 - - -
27/07:30pm - - - - - ESE 28 33 15 18 - - -
27/07:00pm - - - - - SE 28 35 15 19 - - -
27/06:30pm - - - - - ESE 30 35 16 19 - - -
27/06:00pm - - - - - ESE 30 37 16 20 - - -
27/05:30pm - - - - - SE 32 39 17 21 - - -
27/05:00pm - - - - - ESE 30 37 16 20 - - -
27/04:30pm - - - - - ESE 32 37 17 20 - - -
27/04:00pm - - - - - SE 30 37 16 20 - - -
27/03:30pm - - - - - ESE 32 39 17 21 - - -
27/03:00pm - - - - - ESE 32 37 17 20 - - -
27/02:30pm - - - - - SE 30 35 16 19 - - -
27/02:00pm - - - - - SE 28 33 15 18 - - -
27/01:30pm - - - - - ESE 26 32 14 17 - - -
27/01:00pm - - - - - ESE 26 30 14 16 - - -
27/12:30pm - - - - - SE 26 33 14 18 - - -
27/12:00pm - - - - - ESE 26 32 14 17 - - -
27/11:30am - - - - - ESE 26 30 14 16 - - -
27/11:00am - - - - - ESE 26 32 14 17 - - -
27/10:30am - - - - - SE 22 30 12 16 - - -
27/10:00am - - - - - ESE 20 26 11 14 - - -
27/09:30am - - - - - ESE 37 44 20 24 - - -
27/09:00am - - - - - SE 24 30 13 16 - - -
27/08:30am - - - - - SE 22 28 12 15 - - -
27/08:00am - - - - - SE 22 24 12 13 - - -
27/07:30am - - - - - ESE 22 28 12 15 - - -
27/07:00am - - - - - ESE 19 22 10 12 - - -
27/06:30am - - - - - ESE 19 22 10 12 - - -
27/06:00am - - - - - ESE 15 19 8 10 - - -
27/05:30am - - - - - E 19 20 10 11 - - -
27/05:00am - - - - - ESE 22 26 12 14 - - -
27/04:30am - - - - - ESE 22 28 12 15 - - -
27/04:00am - - - - - SE 20 26 11 14 - - -
27/03:30am - - - - - ESE 22 26 12 14 - - -
27/03:00am - - - - - ESE 24 30 13 16 - - -
27/02:30am - - - - - SE 24 30 13 16 - - -
27/02:00am - - - - - SE 24 30 13 16 - - -
27/01:30am - - - - - SE 26 32 14 17 - - -
27/01:00am - - - - - ESE 24 30 13 16 - - -
27/12:30am - - - - - ESE 24 30 13 16 - - -
27/12:00am - - - - - ESE 20 24 11 13 - - -
 
Date/Time
EST
Temp
°C
App
Temp
°C
Dew
Point
Rel
Hum
%
Delta-T
°C
Wind Press
QNH
hPa
Press
MSL
hPa
Rain
since 9 am
mm
Dir
 
Spd
km/h
Gust
km/h
Spd
kts
Gust
kts
26/11:30pm - - - - - SE 19 20 10 11 - - -
26/11:00pm - - - - - SE 19 24 10 13 - - -
26/10:30pm - - - - - ESE 26 30 14 16 - - -
26/10:00pm - - - - - SE 28 33 15 18 - - -
26/09:30pm - - - - - SE 30 35 16 19 - - -
26/09:00pm - - - - - SE 30 33 16 18 - - -
26/08:30pm - - - - - SE 28 35 15 19 - - -
26/08:00pm - - - - - SE 33 37 18 20 - - -
26/07:30pm - - - - - SE 33 41 18 22 - - -
26/07:00pm - - - - - SE 35 41 19 22 - - -
26/06:30pm - - - - - SE 32 41 17 22 - - -
26/06:00pm - - - - - SE 33 41 18 22 - - -
26/05:30pm - - - - - SE 33 39 18 21 - - -
26/05:00pm - - - - - SE 32 37 17 20 - - -
26/04:30pm - - - - - SE 28 33 15 18 - - -
26/04:00pm - - - - - ESE 28 35 15 19 - - -
26/03:30pm - - - - - SE 28 35 15 19 - - -
26/03:00pm - - - - - SE 26 32 14 17 - - -
26/02:30pm - - - - - SE 28 32 15 17 - - -

Other Formats:

Comma delimited format used in spreadsheet applications
http://www.bom.gov.au/fwo/IDQ60801/IDQ60801.94591.axf

JavaScript Object Notation format (JSON) in row-major order
http://www.bom.gov.au/fwo/IDQ60801/IDQ60801.94591.json